Terminal Aerodrome Forecast
Issued by NWS Sterling, VA

Current Version | Previous Version | Graphics & Text | Print | Product List | Glossary On
Versions: 1 2 3 4 5 6 7 8 9 10 11 12 13 14 15 16 17 18 19 20 21 22
206
FTUS41 KLWX 120525
TAFIAD
TAF
KIAD 120525Z 1206/1312 17007KT P6SM OVC110 WS020/20040KT
     FM120900 18008KT P6SM OVC100
     FM121400 22008KT P6SM BKN110
     FM121600 26010KT P6SM BKN100
     FM121800 28015G23KT P6SM BKN045
     FM122200 30016G26KT P6SM BKN045=

USA.gov is the U.S. government's official web portal to all federal, state and local government web resources and services.